Time;durP1;ratioP1;P1;durP2;ratioP2;P2;SDS_P1;SDS_P2;PMS_P1;PMS_P2;Temp;Humidity;BMP_temperature;BMP_pressure;BME280_temperature;BME280_humidity;BME280_pressure;Samples;Min_cycle;Max_cycle;Signal;HPM_P1;HPM_P2
2023/08/10 00:01:48;;;;;;;5.03;2.83;;;;;;;12.20;94.68;102018.38;6191591;23;20493;-69
2023/08/10 00:04:13;;;;;;;13.07;3.22;;;;;;;12.22;93.79;102027.97;6166575;23;20438;-70
2023/08/10 00:06:39;;;;;;;5.75;2.97;;;;;;;12.34;92.72;102029.75;6166872;23;20438;-70
2023/08/10 00:09:05;;;;;;;4.72;2.72;;;;;;;12.26;93.80;102026.25;6192688;23;20090;-70
2023/08/10 00:11:31;;;;;;;4.65;2.90;;;;;;;12.25;94.04;102022.72;6192430;23;20419;-69
2023/08/10 00:13:56;;;;;;;6.00;3.35;;;;;;;12.27;93.75;102018.34;6191937;23;20095;-70
2023/08/10 00:16:22;;;;;;;6.38;3.30;;;;;;;12.29;92.68;102020.97;6166829;23;20012;-70
2023/08/10 00:18:48;;;;;;;4.70;2.85;;;;;;;12.37;92.91;102018.34;6165393;23;20023;-70
2023/08/10 00:21:13;;;;;;;4.85;3.20;;;;;;;12.40;93.60;102021.00;6217473;23;20011;-70
2023/08/10 00:23:39;;;;;;;5.97;3.38;;;;;;;12.53;92.18;102019.19;6192064;23;20087;-70
2023/08/10 00:26:04;;;;;;;5.45;3.00;;;;;;;12.55;92.91;102030.63;6192626;23;20012;-70
2023/08/10 00:28:30;;;;;;;5.05;3.00;;;;;;;12.57;93.43;102028.84;6192267;23;20012;-69
2023/08/10 00:30:55;;;;;;;6.22;3.30;;;;;;;12.57;93.31;102028.84;6166814;23;20012;-70
2023/08/10 00:33:21;;;;;;;5.07;3.08;;;;;;;12.55;92.58;102028.84;6192062;23;20087;-70
2023/08/10 00:35:46;;;;;;;6.07;3.40;;;;;;;12.58;92.22;102020.09;6192003;23;20341;-70
2023/08/10 00:38:12;;;;;;;6.50;3.60;;;;;;;12.63;90.78;102023.59;6167626;23;20048;-70
2023/08/10 00:40:37;;;;;;;6.75;3.38;;;;;;;12.63;90.88;102020.97;6167531;23;20016;-70
2023/08/10 00:43:03;;;;;;;9.52;3.45;;;;;;;12.66;91.42;102034.09;6192044;23;20036;-70
2023/08/10 00:45:31;;;;;;;5.13;3.50;;;;;;;12.71;91.37;102027.06;6167015;23;20008;-70
2023/08/10 00:47:58;;;;;;;5.85;3.72;;;;;;;12.71;91.84;102032.31;6192584;23;20004;-70
2023/08/10 00:50:24;;;;;;;6.07;3.72;;;;;;;12.77;91.89;102024.44;6192112;23;20012;-69
2023/08/10 00:52:52;;;;;;;8.25;3.72;;;;;;;12.79;92.59;102027.94;6212171;23;20388;-69
2023/08/10 00:55:18;;;;;;;8.70;3.90;;;;;;;12.67;93.21;102022.72;6211810;23;20106;-69
2023/08/10 00:57:44;;;;;;;6.88;3.80;;;;;;;12.69;93.64;102017.47;6212055;23;20004;-69
2023/08/10 01:00:10;;;;;;;7.85;4.25;;;;;;;12.68;93.89;102016.56;6212080;23;20016;-69
2023/08/10 01:02:39;;;;;;;5.03;3.47;;;;;;;12.74;93.85;102016.56;6210703;23;20000;-69
2023/08/10 01:05:07;;;;;;;7.43;3.53;;;;;;;12.67;94.24;102020.09;6185808;23;20012;-69
2023/08/10 01:08:00;;;;;;;6.80;4.18;;;;;;;12.67;96.42;102012.19;6211945;23;20146;-69
2023/08/10 01:10:47;;;;;;;4.32;3.35;;;;;;;12.73;95.56;102012.19;6213114;23;20427;-69
2023/08/10 01:13:24;;;;;;;7.50;4.00;;;;;;;12.70;96.03;102024.44;6213371;23;20407;-69
2023/08/10 01:15:53;;;;;;;8.40;4.13;;;;;;;12.63;95.39;102018.34;6212536;23;20023;-69
2023/08/10 01:18:25;;;;;;;6.63;3.50;;;;;;;12.74;96.53;102021.84;6212304;23;20008;-69
2023/08/10 01:20:53;;;;;;;7.00;4.07;;;;;;;12.76;95.75;102017.44;6188175;23;20009;-68
2023/08/10 01:23:26;;;;;;;5.82;3.78;;;;;;;12.75;95.53;102023.56;6212228;23;20040;-69
2023/08/10 01:25:52;;;;;;;5.50;3.90;;;;;;;12.81;94.75;102025.31;6213390;23;20004;-69
2023/08/10 01:28:18;;;;;;;5.75;4.00;;;;;;;12.83;94.66;102021.81;6212944;23;20009;-69
2023/08/10 01:30:44;;;;;;;5.60;3.70;;;;;;;12.85;94.69;102023.56;6187297;23;20016;-69
2023/08/10 01:33:10;;;;;;;5.43;3.67;;;;;;;12.79;96.07;102025.31;6186949;23;20087;-69
2023/08/10 01:35:36;;;;;;;5.63;3.85;;;;;;;12.87;96.15;102027.03;6213442;23;20035;-69
2023/08/10 01:38:05;;;;;;;7.70;3.80;;;;;;;12.87;96.25;102029.69;6211931;23;20000;-69
2023/08/10 01:40:34;;;;;;;4.47;3.90;;;;;;;12.87;96.44;102032.31;6211643;23;20070;-69
2023/08/10 01:42:59;;;;;;;9.27;4.50;;;;;;;12.90;95.34;102033.19;6186885;23;20103;-69
2023/08/10 01:45:25;;;;;;;4.50;4.10;;;;;;;12.88;95.75;102034.06;6187039;23;20343;-69
2023/08/10 01:48:11;;;;;;;6.88;4.47;;;;;;;12.98;95.38;102034.03;6162765;23;20490;-69
2023/08/10 01:50:40;;;;;;;6.28;3.92;;;;;;;12.88;95.78;102034.94;6212083;23;20388;-69
2023/08/10 01:53:09;;;;;;;5.47;3.60;;;;;;;12.90;95.86;102027.94;6212142;23;20457;-69
2023/08/10 01:55:35;;;;;;;8.98;4.13;;;;;;;12.90;95.60;102022.66;6211943;23;20086;-69
2023/08/10 01:58:00;;;;;;;9.75;4.40;;;;;;;12.96;95.17;102022.66;6186728;23;20449;-69
2023/08/10 02:00:26;;;;;;;8.13;4.80;;;;;;;12.92;94.82;102027.94;6211429;23;20013;-69
2023/08/10 02:02:51;;;;;;;7.35;4.50;;;;;;;12.87;95.72;102030.53;6186394;23;20013;-69
2023/08/10 02:05:17;;;;;;;5.03;3.78;;;;;;;12.92;94.57;102022.66;6212287;23;20419;-69
2023/08/10 02:07:48;;;;;;;6.32;4.13;;;;;;;12.90;94.71;102027.03;6186904;23;20008;-69
2023/08/10 02:10:14;;;;;;;5.35;4.15;;;;;;;12.79;94.29;102030.56;6188405;23;20019;-69
2023/08/10 02:12:39;;;;;;;6.60;4.32;;;;;;;12.84;94.28;102025.28;6210398;23;20004;-69
2023/08/10 02:15:05;;;;;;;5.38;4.35;;;;;;;12.80;95.04;102019.19;6161899;23;20020;-69
2023/08/10 02:17:35;;;;;;;6.70;4.05;;;;;;;12.76;95.21;102022.69;6186203;23;20016;-69
2023/08/10 02:20:11;;;;;;;5.28;3.95;;;;;;;12.67;96.28;102022.72;6186613;23;20032;-69
2023/08/10 02:22:38;;;;;;;5.93;4.68;;;;;;;12.72;96.11;102022.72;6211113;23;20012;-69
2023/08/10 02:25:03;;;;;;;6.78;4.28;;;;;;;12.63;96.56;102023.59;6211771;23;20335;-69
2023/08/10 02:27:29;;;;;;;6.28;4.15;;;;;;;12.45;96.02;102025.34;6161829;23;20005;-69
2023/08/10 02:29:54;;;;;;;5.88;3.90;;;;;;;12.43;95.97;102029.75;6186922;23;20516;-68
2023/08/10 02:32:20;;;;;;;5.93;4.45;;;;;;;12.40;96.68;102035.00;6184202;23;20346;-69
2023/08/10 02:34:45;;;;;;;5.63;4.35;;;;;;;12.41;97.11;102034.13;6210679;23;20083;-69
2023/08/10 02:37:11;;;;;;;6.97;4.90;;;;;;;12.29;98.08;102040.25;6186073;23;20016;-69
2023/08/10 02:39:36;;;;;;;6.00;3.97;;;;;;;12.26;98.29;102035.00;6162273;23;20393;-69
2023/08/10 02:42:02;;;;;;;8.50;4.50;;;;;;;12.27;97.76;102038.53;6161991;23;20019;-69
2023/08/10 02:44:27;;;;;;;8.85;4.28;;;;;;;12.23;97.53;102034.13;6211834;23;20013;-69
2023/08/10 02:46:53;;;;;;;5.55;4.10;;;;;;;12.02;98.30;102033.22;6211704;23;20071;-68
2023/08/10 02:49:19;;;;;;;5.78;4.28;;;;;;;11.91;98.59;102042.78;6185608;23;20016;-69
2023/08/10 02:51:45;;;;;;;5.55;4.43;;;;;;;11.93;98.27;102046.31;6162097;23;20099;-68
2023/08/10 02:54:10;;;;;;;5.55;4.97;;;;;;;11.79;98.92;102039.28;6191370;23;20077;-69
2023/08/10 02:56:36;;;;;;;7.72;4.68;;;;;;;11.83;98.71;102041.94;6191197;23;20016;-68
2023/08/10 02:59:03;;;;;;;6.07;4.72;;;;;;;11.82;99.42;102042.78;6216867;23;20012;-69
2023/08/10 03:01:28;;;;;;;7.95;5.03;;;;;;;11.81;99.91;102043.66;6167022;23;20061;-70
2023/08/10 03:03:53;;;;;;;5.10;4.60;;;;;;;11.78;99.97;102032.28;6216200;23;20460;-70
2023/08/10 03:06:19;;;;;;;6.00;4.40;;;;;;;11.76;100.00;102039.25;6191956;23;20440;-70
2023/08/10 03:08:45;;;;;;;7.57;5.15;;;;;;;11.69;100.00;102041.88;6216701;23;20011;-70
2023/08/10 03:11:13;;;;;;;5.78;4.47;;;;;;;11.61;100.00;102049.75;6167969;23;20008;-70
2023/08/10 03:13:38;;;;;;;6.78;4.65;;;;;;;11.61;100.00;102049.75;6217374;23;20000;-69
2023/08/10 03:16:04;;;;;;;6.72;4.40;;;;;;;11.46;100.00;102049.69;6191806;23;20016;-70
2023/08/10 03:18:29;;;;;;;7.20;4.57;;;;;;;11.41;100.00;102057.53;6216239;23;20453;-70
2023/08/10 03:20:55;;;;;;;5.70;4.20;;;;;;;11.38;100.00;102058.41;6191363;23;20008;-70
2023/08/10 03:23:20;;;;;;;6.57;4.63;;;;;;;11.50;100.00;102056.69;6167406;23;20383;-70
2023/08/10 03:25:46;;;;;;;6.85;4.85;;;;;;;11.54;100.00;102058.47;6217409;23;20016;-70
2023/08/10 03:28:11;;;;;;;6.68;4.90;;;;;;;11.52;100.00;102061.09;6192641;23;20027;-70
2023/08/10 03:30:37;;;;;;;7.22;4.72;;;;;;;11.57;100.00;102061.09;6216301;23;20074;-70
2023/08/10 03:33:03;;;;;;;8.35;4.68;;;;;;;11.50;100.00;102067.19;6191951;23;20576;-70
2023/08/10 03:35:28;;;;;;;5.70;4.22;;;;;;;11.54;100.00;102061.09;6216896;23;20491;-70
2023/08/10 03:37:54;;;;;;;7.25;4.45;;;;;;;11.49;100.00;102062.81;6167595;23;20016;-70
2023/08/10 03:40:19;;;;;;;6.78;4.20;;;;;;;11.50;100.00;102056.69;6217619;23;20400;-70
2023/08/10 03:42:44;;;;;;;8.75;4.65;;;;;;;11.42;100.00;102064.53;6191752;23;20023;-69
2023/08/10 03:45:10;;;;;;;8.40;5.32;;;;;;;11.41;100.00;102055.78;6192157;23;20012;-68
2023/08/10 03:47:36;;;;;;;8.82;5.43;;;;;;;11.47;100.00;102051.44;6191527;23;20016;-69
2023/08/10 03:50:02;;;;;;;5.93;5.00;;;;;;;11.49;100.00;102065.44;6215467;23;20012;-69
2023/08/10 03:52:27;;;;;;;7.63;4.90;;;;;;;11.43;100.00;102056.69;6167108;23;20042;-69
2023/08/10 03:54:52;;;;;;;7.72;5.25;;;;;;;11.41;100.00;102065.41;6216310;23;20066;-69
2023/08/10 03:57:18;;;;;;;7.97;5.28;;;;;;;11.39;100.00;102059.25;6166634;23;20016;-69
2023/08/10 03:59:44;;;;;;;10.95;5.30;;;;;;;11.37;100.00;102061.88;6215747;23;20099;-69
2023/08/10 04:02:09;;;;;;;5.78;5.18;;;;;;;11.38;100.00;102061.03;6216114;23;20004;-69
2023/08/10 04:04:34;;;;;;;9.52;5.40;;;;;;;11.36;100.00;102062.75;6190693;23;20024;-69
2023/08/10 04:07:00;;;;;;;8.25;5.97;;;;;;;11.37;100.00;102061.88;6166098;23;20397;-68
2023/08/10 04:09:25;;;;;;;10.82;5.05;;;;;;;11.27;100.00;102067.97;6166367;23;20401;-68
2023/08/10 04:11:51;;;;;;;8.27;4.88;;;;;;;11.23;100.00;102072.34;6166862;23;20434;-68
2023/08/10 04:14:17;;;;;;;7.88;4.97;;;;;;;11.18;100.00;102076.66;6190767;23;20032;-69
2023/08/10 04:16:42;;;;;;;6.57;5.40;;;;;;;11.15;100.00;102075.75;6215768;23;20065;-68
2023/08/10 04:19:08;;;;;;;8.10;5.40;;;;;;;11.20;100.00;102074.06;6165847;23;20371;-68
2023/08/10 04:21:33;;;;;;;8.18;5.68;;;;;;;11.31;100.00;102074.13;6191689;23;20020;-68
2023/08/10 04:23:59;;;;;;;8.00;5.45;;;;;;;11.34;100.00;102072.38;6191867;23;20016;-69
2023/08/10 04:26:24;;;;;;;8.77;5.82;;;;;;;11.30;100.00;102072.34;6167062;23;20016;-68
2023/08/10 04:28:50;;;;;;;11.73;5.72;;;;;;;11.30;100.00;102070.59;6216771;23;20012;-68
2023/08/10 04:31:16;;;;;;;6.50;5.13;;;;;;;11.27;100.00;102060.09;6191435;23;20012;-68
2023/08/10 04:33:42;;;;;;;7.53;5.53;;;;;;;11.30;100.00;102073.22;6166020;23;20019;-69
2023/08/10 04:36:07;;;;;;;9.95;5.50;;;;;;;11.34;100.00;102071.50;6190968;23;20020;-69
2023/08/10 04:38:34;;;;;;;6.53;5.70;;;;;;;11.38;100.00;102074.16;6166856;23;20384;-69
2023/08/10 04:40:59;;;;;;;6.68;5.85;;;;;;;11.44;100.00;102079.41;6216294;23;20012;-68
2023/08/10 04:43:25;;;;;;;8.73;5.80;;;;;;;11.45;100.00;102080.31;6190919;23;20430;-69
2023/08/10 04:45:50;;;;;;;8.27;5.30;;;;;;;11.51;100.00;102079.47;6191615;23;20017;-69
2023/08/10 04:48:16;;;;;;;8.88;5.53;;;;;;;11.51;100.00;102077.69;6167882;23;20008;-69
2023/08/10 04:50:42;;;;;;;9.70;5.78;;;;;;;11.58;100.00;102081.25;6167837;23;20098;-68
2023/08/10 04:53:07;;;;;;;7.57;4.95;;;;;;;11.60;100.00;102088.22;6218366;23;20020;-69
2023/08/10 04:55:32;;;;;;;5.85;4.47;;;;;;;11.71;100.00;102088.28;6216779;23;20004;-69
2023/08/10 04:57:58;;;;;;;5.95;4.32;;;;;;;11.69;100.00;102078.63;6192898;23;20016;-68
2023/08/10 05:00:23;;;;;;;11.02;5.88;;;;;;;11.86;100.00;102083.94;6191816;23;20016;-69
2023/08/10 05:02:50;;;;;;;11.27;5.45;;;;;;;11.91;100.00;102084.81;6192599;23;20012;-69
2023/08/10 05:05:17;;;;;;;10.10;5.40;;;;;;;11.88;100.00;102097.94;6217515;23;20097;-69
2023/08/10 05:07:44;;;;;;;10.80;5.90;;;;;;;12.03;100.00;102092.78;6193240;23;20003;-69
2023/08/10 05:10:10;;;;;;;10.68;5.78;;;;;;;12.42;100.00;102088.44;6167660;23;20012;-68
2023/08/10 05:12:37;;;;;;;10.57;5.28;;;;;;;12.49;100.00;102089.34;6217411;23;20008;-68
2023/08/10 05:15:04;;;;;;;9.57;5.45;;;;;;;12.51;100.00;102091.97;6189968;23;20318;-68
2023/08/10 05:17:30;;;;;;;9.20;4.95;;;;;;;12.48;100.00;102093.72;6216412;23;20016;-68
2023/08/10 05:19:55;;;;;;;7.72;5.13;;;;;;;12.47;100.00;102093.72;6216446;23;20004;-69
2023/08/10 05:22:21;;;;;;;9.23;6.03;;;;;;;12.42;100.00;102085.81;6167745;23;20004;-68
2023/08/10 05:24:46;;;;;;;8.38;5.80;;;;;;;12.47;100.00;102085.84;6192705;23;20091;-68
2023/08/10 05:27:12;;;;;;;7.28;6.03;;;;;;;12.50;100.00;102088.47;6191936;23;20015;-68
2023/08/10 05:29:37;;;;;;;9.85;5.65;;;;;;;12.50;100.00;102090.19;6168175;23;20015;-68
2023/08/10 05:32:03;;;;;;;8.73;6.30;;;;;;;12.55;100.00;102097.22;6168449;23;20012;-68
2023/08/10 05:34:28;;;;;;;7.95;6.13;;;;;;;12.63;100.00;102097.22;6192645;23;20008;-69
2023/08/10 05:36:54;;;;;;;10.75;6.50;;;;;;;12.72;100.00;102091.94;6192606;23;20040;-69
2023/08/10 05:39:19;;;;;;;10.20;6.38;;;;;;;12.81;100.00;102091.06;6217220;23;20012;-69
2023/08/10 05:41:45;;;;;;;9.32;6.50;;;;;;;12.85;100.00;102087.56;6168074;23;20008;-68
2023/08/10 05:44:12;;;;;;;10.02;6.70;;;;;;;13.02;100.00;102084.03;6192092;23;20410;-68
2023/08/10 05:46:38;;;;;;;7.85;6.13;;;;;;;13.12;100.00;102081.38;6191231;23;20099;-68
2023/08/10 05:49:04;;;;;;;11.30;6.43;;;;;;;13.30;100.00;102084.81;6166829;23;20082;-69
2023/08/10 05:51:29;;;;;;;10.70;6.40;;;;;;;13.50;100.00;102077.78;6192059;23;20016;-68
2023/08/10 05:53:58;;;;;;;10.43;6.30;;;;;;;13.77;100.00;102080.28;6191294;23;20020;-68
2023/08/10 05:56:24;;;;;;;9.00;5.93;;;;;;;14.16;99.43;102073.88;6217421;23;20524;-69
2023/08/10 05:58:50;;;;;;;9.10;5.80;;;;;;;15.86;93.82;102077.47;6168404;23;20008;-69
2023/08/10 06:01:16;;;;;;;14.05;6.13;;;;;;;17.88;82.18;102083.50;6166780;23;20087;-68
2023/08/10 06:03:42;;;;;;;10.25;5.25;;;;;;;19.40;75.89;102085.88;6167257;23;20015;-68
2023/08/10 06:06:09;;;;;;;11.65;5.65;;;;;;;20.89;68.56;102085.63;6166130;23;20448;-68
2023/08/10 06:08:35;;;;;;;6.60;5.05;;;;;;;21.66;64.10;102086.41;6217620;23;20016;-69
2023/08/10 06:11:01;;;;;;;8.02;5.25;;;;;;;22.65;59.93;102089.47;6218072;23;20383;-69
2023/08/10 06:13:27;;;;;;;6.45;4.78;;;;;;;23.24;56.11;102086.09;6166754;23;20012;-68
2023/08/10 06:15:52;;;;;;;10.25;4.47;;;;;;;24.04;56.06;102090.38;6190667;23;20252;-69
2023/08/10 06:18:18;;;;;;;7.90;4.80;;;;;;;24.83;54.17;102090.00;6192642;23;20042;-69
2023/08/10 06:20:45;;;;;;;6.43;4.53;;;;;;;25.79;49.68;102092.03;6191400;23;20419;-70
2023/08/10 06:23:13;;;;;;;7.47;4.57;;;;;;;26.43;49.05;102099.09;6192959;23;20087;-70
2023/08/10 06:25:40;;;;;;;9.40;5.03;;;;;;;26.96;48.90;102101.34;6168740;23;20458;-70
2023/08/10 06:28:09;;;;;;;7.05;4.53;;;;;;;26.70;50.34;102095.72;6169071;23;20004;-70
2023/08/10 06:30:35;;;;;;;7.30;4.35;;;;;;;25.74;50.48;102100.34;6168675;23;20046;-70
2023/08/10 06:33:01;;;;;;;7.22;4.28;;;;;;;25.20;51.82;102093.41;6191807;23;20431;-69
2023/08/10 06:35:27;;;;;;;6.55;4.10;;;;;;;24.96;52.16;102097.41;6167559;23;20012;-69
2023/08/10 06:37:52;;;;;;;7.15;4.07;;;;;;;25.82;53.15;102100.78;6216907;23;20511;-70
2023/08/10 06:40:20;;;;;;;9.45;4.35;;;;;;;26.39;47.68;102091.28;6192359;23;20046;-70
2023/08/10 06:42:45;;;;;;;7.30;4.25;;;;;;;25.70;48.44;102094.28;6215425;23;20004;-70
2023/08/10 06:45:11;;;;;;;7.43;4.00;;;;;;;24.66;50.94;102090.00;6243899;23;20011;-70
2023/08/10 06:47:37;;;;;;;8.23;3.85;;;;;;;23.84;52.74;102092.16;6191914;23;20038;-71
2023/08/10 06:50:04;;;;;;;6.57;4.18;;;;;;;22.90;54.26;102091.13;6167050;23;20022;-70
2023/08/10 06:52:29;;;;;;;7.40;3.83;;;;;;;21.88;57.42;102089.06;6217159;23;20015;-71
2023/08/10 06:54:55;;;;;;;5.05;4.15;;;;;;;21.79;59.60;102088.53;6189341;23;20019;-71
2023/08/10 06:57:21;;;;;;;6.28;4.50;;;;;;;21.17;59.64;102081.94;6191877;23;20023;-70
2023/08/10 06:59:47;;;;;;;10.38;4.53;;;;;;;20.75;61.52;102082.56;6217165;23;20066;-71
2023/08/10 07:02:14;;;;;;;8.65;4.47;;;;;;;20.49;65.07;102078.09;6216448;23;20054;-71
2023/08/10 07:04:40;;;;;;;5.95;4.55;;;;;;;20.34;67.77;102067.06;6191394;23;20012;-70
2023/08/10 07:07:06;;;;;;;6.50;4.45;;;;;;;20.00;64.86;102073.47;6191160;23;20011;-71
2023/08/10 07:09:31;;;;;;;7.82;5.00;;;;;;;19.72;65.36;102082.28;6167267;23;20032;-71
2023/08/10 07:11:57;;;;;;;6.30;5.05;;;;;;;19.53;66.99;102076.63;6192460;23;20043;-70
2023/08/10 07:14:22;;;;;;;8.50;5.55;;;;;;;19.32;68.37;102080.81;6216453;23;20000;-70
2023/08/10 07:16:49;;;;;;;7.70;5.00;;;;;;;19.27;68.99;102077.41;6190500;23;20004;-70
2023/08/10 07:19:14;;;;;;;14.82;5.85;;;;;;;19.70;71.73;102073.47;6216050;23;20012;-70
2023/08/10 07:21:39;;;;;;;8.00;4.93;;;;;;;19.87;67.38;102072.97;6192742;23;20098;-70
2023/08/10 07:24:07;;;;;;;6.25;4.60;;;;;;;20.62;62.73;102073.25;6243702;23;20314;-71
2023/08/10 07:26:33;;;;;;;6.43;4.75;;;;;;;21.07;61.45;102077.88;6218055;23;20015;-71
2023/08/10 07:28:59;;;;;;;7.35;4.63;;;;;;;21.57;60.90;102085.81;6192511;23;20405;-70
2023/08/10 07:31:31;;;;;;;6.82;4.20;;;;;;;21.33;59.19;102087.56;6192090;23;20090;-70
2023/08/10 07:33:57;;;;;;;5.40;4.05;;;;;;;21.13;59.30;102082.97;6169787;23;20409;-70
2023/08/10 07:36:22;;;;;;;5.75;4.60;;;;;;;21.11;60.14;102090.16;6217964;23;20008;-70
2023/08/10 07:38:48;;;;;;;5.93;3.83;;;;;;;21.14;58.39;102082.06;6218073;23;20011;-70
2023/08/10 07:41:13;;;;;;;5.97;3.78;;;;;;;21.04;59.98;102078.84;6217171;23;20451;-71
2023/08/10 07:43:39;;;;;;;4.50;3.20;;;;;;;20.85;59.50;102075.97;6168129;23;20022;-71
2023/08/10 07:46:04;;;;;;;2.90;1.98;;;;;;;20.63;52.08;102083.84;6165669;23;20024;-70
2023/08/10 07:48:30;;;;;;;4.75;2.67;;;;;;;20.47;53.64;102087.91;6216194;23;20069;-71
2023/08/10 07:50:57;;;;;;;6.60;3.38;;;;;;;20.21;56.71;102089.66;6164423;23;20095;-71
2023/08/10 07:53:23;;;;;;;5.80;3.20;;;;;;;19.92;55.51;102080.81;6165677;23;20438;-71
2023/08/10 07:55:49;;;;;;;5.07;2.13;;;;;;;19.59;54.96;102091.53;6189390;23;20011;-71
2023/08/10 07:58:16;;;;;;;5.95;2.10;;;;;;;19.59;56.66;102091.53;6189802;23;20016;-71
2023/08/10 08:00:42;;;;;;;4.00;2.55;;;;;;;19.49;57.68;102090.06;6190692;23;20009;-71
2023/08/10 08:03:08;;;;;;;4.18;2.85;;;;;;;19.49;58.82;102098.03;6190259;23;20023;-70
2023/08/10 08:05:37;;;;;;;6.30;3.40;;;;;;;19.52;59.53;102098.84;6190186;23;20020;-69
2023/08/10 08:08:06;;;;;;;5.40;3.00;;;;;;;19.59;58.02;102094.19;6168812;23;20183;-69
2023/08/10 08:10:33;;;;;;;2.67;2.40;;;;;;;19.70;58.02;102094.75;6214794;23;20007;-70
2023/08/10 08:12:59;;;;;;;3.42;2.22;;;;;;;19.64;56.81;102089.63;6215288;23;20366;-70
2023/08/10 08:15:25;;;;;;;4.85;1.60;;;;;;;19.54;51.22;102093.47;6188446;23;20103;-69
2023/08/10 08:18:29;;;;;;;2.88;1.30;;;;;;;19.48;53.70;102090.97;6191269;23;20119;-69
2023/08/10 08:20:54;;;;;;;2.90;1.60;;;;;;;19.36;52.71;102085.09;6218517;23;20008;-70
2023/08/10 08:25:51;;;;;;;2.83;1.48;;;;;;;19.49;54.27;102084.75;6210538;22;20361;-67
2023/08/10 08:28:17;;;;;;;5.60;1.65;;;;;;;19.49;53.85;102088.25;6212371;23;20009;-68
2023/08/10 08:30:43;;;;;;;3.17;1.30;;;;;;;19.69;56.26;102089.47;6207880;23;21286;-67
2023/08/10 08:33:09;;;;;;;3.92;1.35;;;;;;;19.65;55.47;102072.75;6171659;22;20040;-67
2023/08/10 08:35:34;;;;;;;2.45;1.33;;;;;;;19.79;58.77;102092.75;6146884;22;20128;-67
2023/08/10 08:43:22;;;;;;;2.72;1.27;;;;;;;20.02;53.21;102087.56;6193234;22;20269;-67
2023/08/10 08:48:20;;;;;;;2.63;1.08;;;;;;;20.24;54.02;102092.19;6185199;23;20025;-67
2023/08/10 09:16:20;;;;;;;2.72;1.45;;;;;;;20.26;54.08;102069.09;6199250;22;20452;-68
2023/08/10 09:27:20;;;;;;;4.70;1.42;;;;;;;20.73;56.09;102055.97;6126702;23;20057;-68
2023/08/10 09:33:07;;;;;;;4.18;1.77;;;;;;;20.97;57.08;102072.00;6126873;23;20061;-68
2023/08/10 09:38:56;;;;;;;3.88;1.65;;;;;;;20.66;53.75;102069.50;6126727;23;20059;-68
2023/08/10 09:41:23;;;;;;;4.00;1.80;;;;;;;20.68;56.50;102073.91;6100138;23;20042;-68
2023/08/10 09:43:49;;;;;;;2.78;1.60;;;;;;;20.89;55.44;102068.78;6074065;23;20010;-68
2023/08/10 09:46:16;;;;;;;2.47;1.30;;;;;;;20.96;55.00;102067.63;6096293;23;20463;-68
2023/08/10 09:48:49;;;;;;;2.60;1.80;;;;;;;20.82;54.46;102064.59;6049686;23;20400;-68
2023/08/10 09:51:16;;;;;;;4.70;1.58;;;;;;;21.02;52.93;102069.16;6124120;23;20006;-68
2023/08/10 09:53:41;;;;;;;2.90;1.40;;;;;;;21.19;56.14;102069.44;6072059;23;20013;-68
2023/08/10 09:56:07;;;;;;;4.43;1.60;;;;;;;21.22;55.19;102071.09;6098238;23;20009;-68
2023/08/10 09:58:38;;;;;;;3.95;1.90;;;;;;;21.12;54.27;102065.25;6072867;23;20022;-68
2023/08/10 10:01:08;;;;;;;2.88;1.60;;;;;;;20.92;53.50;102063.31;6074301;23;20018;-68
2023/08/10 10:03:33;;;;;;;2.03;1.27;;;;;;;20.99;56.40;102055.97;6048856;23;20018;-68
2023/08/10 10:06:00;;;;;;;3.53;1.63;;;;;;;21.16;55.70;102056.22;6098394;23;20093;-68
2023/08/10 10:08:26;;;;;;;3.95;1.80;;;;;;;21.12;55.04;102059.94;6049722;23;20014;-68
2023/08/10 10:10:57;;;;;;;3.03;1.52;;;;;;;21.27;57.04;102063.81;6098218;23;20013;-67
2023/08/10 10:13:23;;;;;;;2.00;1.52;;;;;;;21.57;57.79;102067.13;6096957;23;20538;-67
2023/08/10 10:15:50;;;;;;;4.38;1.15;;;;;;;21.68;56.25;102069.41;6071659;23;20092;-68
2023/08/10 10:18:16;;;;;;;3.88;1.35;;;;;;;21.72;57.88;102065.69;6072857;23;20006;-68
2023/08/10 10:20:44;;;;;;;3.20;1.58;;;;;;;21.79;58.07;102066.31;6047380;23;20014;-67
2023/08/10 10:23:15;;;;;;;3.40;1.67;;;;;;;21.82;55.16;102067.97;6105369;23;20189;-67
2023/08/10 10:25:55;;;;;;;6.45;1.40;;;;;;;21.93;57.18;102071.09;6125960;23;20037;-68
2023/08/10 10:28:21;;;;;;;3.42;1.40;;;;;;;21.85;54.49;102081.19;6104913;23;20037;-68
2023/08/10 10:31:07;;;;;;;5.15;1.40;;;;;;;22.01;56.06;102077.00;6125019;23;20446;-67
2023/08/10 10:33:33;;;;;;;6.03;1.38;;;;;;;21.88;54.23;102081.06;6125560;23;20009;-67
2023/08/10 10:36:05;;;;;;;3.63;1.40;;;;;;;21.80;55.99;102078.72;6095926;23;20013;-67
2023/08/10 10:38:32;;;;;;;2.55;1.20;;;;;;;21.74;55.14;102085.16;6121897;23;20018;-67
2023/08/10 10:41:08;;;;;;;2.70;1.20;;;;;;;22.02;57.40;102083.19;6122795;23;20009;-67
2023/08/10 10:43:34;;;;;;;2.33;1.52;;;;;;;21.88;54.57;102089.97;6120833;23;20100;-68
2023/08/10 10:45:59;;;;;;;2.55;1.52;;;;;;;21.95;55.23;102077.22;6073465;23;20361;-67
2023/08/10 10:48:36;;;;;;;2.33;1.55;;;;;;;21.90;54.43;102073.91;6100688;23;20134;-67
2023/08/10 10:51:03;;;;;;;3.05;1.45;;;;;;;21.82;53.33;102079.50;6149838;23;20033;-68
2023/08/10 10:53:29;;;;;;;4.10;1.48;;;;;;;21.92;54.47;102077.34;6126469;23;20451;-68
2023/08/10 10:55:55;;;;;;;2.90;1.70;;;;;;;21.74;54.25;102074.50;6101847;23;20013;-70
2023/08/10 10:58:22;;;;;;;3.50;1.95;;;;;;;21.57;51.20;102076.94;6103441;23;20092;-70
2023/08/10 11:00:47;;;;;;;4.18;1.73;;;;;;;21.61;52.51;102070.56;6100997;23;20036;-70
2023/08/10 11:03:17;;;;;;;3.80;1.75;;;;;;;21.49;54.83;102073.66;6102780;23;20428;-70
2023/08/10 11:05:43;;;;;;;;;;;;;;;21.97;54.81;102065.56;6080416;23;20040;-70
2023/08/10 11:08:09;;;;;;;5.25;1.83;;;;;;;21.58;52.63;102073.38;6103293;23;19908;-70
2023/08/10 11:10:36;;;;;;;3.25;1.80;;;;;;;21.61;53.31;102068.75;6079410;23;20025;-70
2023/08/10 11:13:06;;;;;;;4.63;1.67;;;;;;;21.69;54.38;102073.78;6128465;23;20021;-70
2023/08/10 11:15:32;;;;;;;7.07;2.10;;;;;;;21.70;52.41;102067.53;6127470;23;20010;-70
2023/08/10 11:17:58;;;;;;;2.40;1.60;;;;;;;21.70;51.51;102067.53;6128356;23;20119;-70
2023/08/10 11:20:23;;;;;;;3.60;1.67;;;;;;;21.59;51.77;102059.97;6078717;23;20013;-70
2023/08/10 11:22:51;;;;;;;3.70;1.90;;;;;;;21.62;52.09;102061.63;6079729;23;20010;-70
2023/08/10 11:25:18;;;;;;;3.30;1.85;;;;;;;21.95;57.75;102055.88;6126638;23;20092;-70
2023/08/10 11:27:48;;;;;;;3.38;1.88;;;;;;;22.23;54.30;102060.09;6100829;23;20017;-70
2023/08/10 11:30:16;;;;;;;5.45;1.85;;;;;;;22.10;51.18;102055.25;6126611;23;20016;-70
2023/08/10 11:32:53;;;;;;;3.63;1.88;;;;;;;22.10;52.84;102054.41;6126703;23;20328;-70
2023/08/10 11:35:23;;;;;;;3.40;1.83;;;;;;;22.21;54.19;102052.16;6150569;23;20016;-70
2023/08/10 11:37:50;;;;;;;4.47;2.00;;;;;;;22.29;52.35;102057.16;6127350;23;20009;-70
2023/08/10 11:40:20;;;;;;;2.15;1.80;;;;;;;22.19;50.66;102045.16;6101246;23;20005;-70
2023/08/10 11:42:49;;;;;;;;;;;;;;;22.55;52.08;102050.75;6103918;23;20102;-70
2023/08/10 11:45:20;;;;;;;5.13;2.20;;;;;;;22.23;53.20;102044.94;6152022;23;20345;-70
2023/08/10 11:47:49;;;;;;;3.30;1.92;;;;;;;22.39;53.14;102049.69;6127366;23;20453;-70
2023/08/10 11:50:19;;;;;;;2.87;1.97;;;;;;;22.40;53.71;102048.75;6126817;23;20016;-70
2023/08/10 11:52:44;;;;;;;4.82;1.92;;;;;;;22.56;52.59;102048.97;6126310;23;20408;-70
2023/08/10 11:55:14;;;;;;;2.60;1.90;;;;;;;22.71;51.77;102042.94;6100307;23;20013;-70
2023/08/10 11:57:42;;;;;;;4.82;2.03;;;;;;;22.60;50.11;102047.91;6126907;23;20020;-70
2023/08/10 12:00:30;;;;;;;2.65;1.75;;;;;;;22.74;52.76;102040.16;6126509;23;20037;-70
2023/08/10 12:03:11;;;;;;;4.68;1.90;;;;;;;22.58;51.81;102036.41;6126801;23;20012;-70
2023/08/10 12:05:37;;;;;;;3.85;2.10;;;;;;;22.33;50.65;102031.25;6125071;23;20024;-70
2023/08/10 12:08:09;;;;;;;2.25;1.67;;;;;;;22.31;50.90;102033.94;6125572;23;20491;-70
2023/08/10 12:10:41;;;;;;;2.58;1.83;;;;;;;22.42;54.08;102031.72;6125610;23;20420;-70
2023/08/10 12:13:12;;;;;;;6.20;2.10;;;;;;;22.69;55.30;102042.13;6126627;23;20009;-70